sensor_id;sensor_type;location;lat;lon;timestamp;pressure;altitude;pressure_sealevel;temperature;humidity
58662;BME280;44432;49.786;22.760;2023-04-04T00:00:39;99811.90;;;0.28;74.66
58662;BME280;44432;49.786;22.760;2023-04-04T00:03:17;99811.69;;;0.30;74.79
58662;BME280;44432;49.786;22.760;2023-04-04T00:05:48;99811.67;;;0.32;74.56
58662;BME280;44432;49.786;22.760;2023-04-04T00:08:19;99812.02;;;0.32;74.51
58662;BME280;44432;49.786;22.760;2023-04-04T00:10:51;99812.21;;;0.30;74.27
58662;BME280;44432;49.786;22.760;2023-04-04T00:13:26;99812.20;;;0.28;74.17
58662;BME280;44432;49.786;22.760;2023-04-04T00:15:57;99812.70;;;0.25;74.21
58662;BME280;44432;49.786;22.760;2023-04-04T00:18:28;99823.42;;;0.23;74.25
58662;BME280;44432;49.786;22.760;2023-04-04T00:20:58;99820.52;;;0.20;74.22
58662;BME280;44432;49.786;22.760;2023-04-04T00:23:29;99817.04;;;0.18;74.00
58662;BME280;44432;49.786;22.760;2023-04-04T00:26:00;99815.77;;;0.18;73.91
58662;BME280;44432;49.786;22.760;2023-04-04T00:28:31;99813.36;;;0.17;74.06
58662;BME280;44432;49.786;22.760;2023-04-04T00:31:02;99812.97;;;0.18;73.95
58662;BME280;44432;49.786;22.760;2023-04-04T00:33:33;99809.28;;;0.16;73.86
58662;BME280;44432;49.786;22.760;2023-04-04T00:36:03;99805.55;;;0.13;73.91
58662;BME280;44432;49.786;22.760;2023-04-04T00:38:34;99810.38;;;0.10;73.60
58662;BME280;44432;49.786;22.760;2023-04-04T00:41:06;99810.80;;;0.05;73.85
58662;BME280;44432;49.786;22.760;2023-04-04T00:43:36;99808.04;;;0.01;73.95
58662;BME280;44432;49.786;22.760;2023-04-04T00:46:08;99806.98;;;-0.05;73.84
58662;BME280;44432;49.786;22.760;2023-04-04T00:48:43;99811.49;;;-0.11;73.85
58662;BME280;44432;49.786;22.760;2023-04-04T00:51:14;99807.10;;;-0.16;74.01
58662;BME280;44432;49.786;22.760;2023-04-04T00:53:46;99804.23;;;-0.19;73.96
58662;BME280;44432;49.786;22.760;2023-04-04T00:56:17;99804.16;;;-0.20;73.81
58662;BME280;44432;49.786;22.760;2023-04-04T00:58:49;99802.08;;;-0.20;74.07
58662;BME280;44432;49.786;22.760;2023-04-04T01:01:19;99799.05;;;-0.21;73.83
58662;BME280;44432;49.786;22.760;2023-04-04T01:03:50;99799.42;;;-0.23;73.94
58662;BME280;44432;49.786;22.760;2023-04-04T01:06:21;99799.83;;;-0.26;73.87
58662;BME280;44432;49.786;22.760;2023-04-04T01:08:52;99800.00;;;-0.30;73.81
58662;BME280;44432;49.786;22.760;2023-04-04T01:11:24;99798.41;;;-0.36;73.98
58662;BME280;44432;49.786;22.760;2023-04-04T01:13:55;99805.86;;;-0.38;73.91
58662;BME280;44432;49.786;22.760;2023-04-04T01:16:26;99806.65;;;-0.43;73.97
58662;BME280;44432;49.786;22.760;2023-04-04T01:18:56;99808.30;;;-0.47;74.04
58662;BME280;44432;49.786;22.760;2023-04-04T01:21:29;99810.77;;;-0.47;74.06
58662;BME280;44432;49.786;22.760;2023-04-04T01:24:02;99810.46;;;-0.45;74.20
58662;BME280;44432;49.786;22.760;2023-04-04T01:26:33;99810.73;;;-0.43;74.13
58662;BME280;44432;49.786;22.760;2023-04-04T01:29:04;99816.55;;;-0.40;73.99
58662;BME280;44432;49.786;22.760;2023-04-04T01:31:38;99816.13;;;-0.37;74.10
58662;BME280;44432;49.786;22.760;2023-04-04T01:34:15;99814.57;;;-0.35;74.15
58662;BME280;44432;49.786;22.760;2023-04-04T01:36:49;99809.69;;;-0.32;73.95
58662;BME280;44432;49.786;22.760;2023-04-04T01:39:26;99809.74;;;-0.31;73.85
58662;BME280;44432;49.786;22.760;2023-04-04T01:41:58;99808.41;;;-0.29;73.89
58662;BME280;44432;49.786;22.760;2023-04-04T01:44:31;99808.27;;;-0.25;73.88
58662;BME280;44432;49.786;22.760;2023-04-04T01:47:02;99813.06;;;-0.21;73.95
58662;BME280;44432;49.786;22.760;2023-04-04T01:49:33;99812.11;;;-0.18;73.63
58662;BME280;44432;49.786;22.760;2023-04-04T01:52:04;99814.04;;;-0.16;73.70
58662;BME280;44432;49.786;22.760;2023-04-04T01:54:35;99812.54;;;-0.15;73.70
58662;BME280;44432;49.786;22.760;2023-04-04T01:57:06;99805.85;;;-0.16;73.54
58662;BME280;44432;49.786;22.760;2023-04-04T01:59:37;99809.40;;;-0.15;73.70
58662;BME280;44432;49.786;22.760;2023-04-04T02:02:07;99805.28;;;-0.13;73.50
58662;BME280;44432;49.786;22.760;2023-04-04T02:04:38;99804.11;;;-0.12;73.39
58662;BME280;44432;49.786;22.760;2023-04-04T02:07:09;99803.33;;;-0.10;73.49
58662;BME280;44432;49.786;22.760;2023-04-04T02:09:40;99808.17;;;-0.09;73.60
58662;BME280;44432;49.786;22.760;2023-04-04T02:12:10;99806.23;;;-0.08;73.42
58662;BME280;44432;49.786;22.760;2023-04-04T02:14:41;99803.50;;;-0.09;73.43
58662;BME280;44432;49.786;22.760;2023-04-04T02:17:12;99805.30;;;-0.07;73.43
58662;BME280;44432;49.786;22.760;2023-04-04T02:19:43;99798.00;;;-0.07;73.48
58662;BME280;44432;49.786;22.760;2023-04-04T02:22:14;99800.73;;;-0.05;73.49
58662;BME280;44432;49.786;22.760;2023-04-04T02:24:45;99797.34;;;-0.03;73.35
58662;BME280;44432;49.786;22.760;2023-04-04T02:27:16;99798.05;;;-0.02;73.21
58662;BME280;44432;49.786;22.760;2023-04-04T02:29:46;99800.59;;;-0.01;73.23
58662;BME280;44432;49.786;22.760;2023-04-04T02:32:17;99798.33;;;-0.03;73.12
58662;BME280;44432;49.786;22.760;2023-04-04T02:34:48;99793.50;;;-0.07;73.16
58662;BME280;44432;49.786;22.760;2023-04-04T02:37:19;99788.41;;;-0.10;73.20
58662;BME280;44432;49.786;22.760;2023-04-04T02:39:50;99786.65;;;-0.14;73.27
58662;BME280;44432;49.786;22.760;2023-04-04T02:42:20;99783.39;;;-0.16;73.23
58662;BME280;44432;49.786;22.760;2023-04-04T02:44:51;99785.59;;;-0.19;73.20
58662;BME280;44432;49.786;22.760;2023-04-04T02:47:22;99782.14;;;-0.22;73.30
58662;BME280;44432;49.786;22.760;2023-04-04T02:49:52;99782.52;;;-0.26;73.14
58662;BME280;44432;49.786;22.760;2023-04-04T02:52:23;99781.75;;;-0.31;73.20
58662;BME280;44432;49.786;22.760;2023-04-04T02:54:54;99778.83;;;-0.39;73.28
58662;BME280;44432;49.786;22.760;2023-04-04T02:57:25;99775.77;;;-0.44;73.29
58662;BME280;44432;49.786;22.760;2023-04-04T02:59:55;99775.77;;;-0.48;73.66
58662;BME280;44432;49.786;22.760;2023-04-04T03:02:26;99771.77;;;-0.50;73.68
58662;BME280;44432;49.786;22.760;2023-04-04T03:04:57;99770.83;;;-0.51;73.74
58662;BME280;44432;49.786;22.760;2023-04-04T03:07:28;99766.92;;;-0.52;73.82
58662;BME280;44432;49.786;22.760;2023-04-04T03:09:59;99759.92;;;-0.53;73.74
58662;BME280;44432;49.786;22.760;2023-04-04T03:12:30;99751.45;;;-0.57;73.86
58662;BME280;44432;49.786;22.760;2023-04-04T03:15:00;99750.33;;;-0.62;73.96
58662;BME280;44432;49.786;22.760;2023-04-04T03:17:31;99758.64;;;-0.64;74.08
58662;BME280;44432;49.786;22.760;2023-04-04T03:20:02;99759.20;;;-0.69;74.16
58662;BME280;44432;49.786;22.760;2023-04-04T03:22:33;99757.40;;;-0.72;74.27
58662;BME280;44432;49.786;22.760;2023-04-04T03:25:04;99756.46;;;-0.73;74.36
58662;BME280;44432;49.786;22.760;2023-04-04T03:27:35;99755.38;;;-0.73;74.52
58662;BME280;44432;49.786;22.760;2023-04-04T03:30:09;99755.40;;;-0.73;74.35
58662;BME280;44432;49.786;22.760;2023-04-04T03:32:40;99756.41;;;-0.73;74.55
58662;BME280;44432;49.786;22.760;2023-04-04T03:35:11;99755.84;;;-0.74;74.74
58662;BME280;44432;49.786;22.760;2023-04-04T03:37:42;99759.48;;;-0.72;74.66
58662;BME280;44432;49.786;22.760;2023-04-04T03:40:13;99760.02;;;-0.74;74.65
58662;BME280;44432;49.786;22.760;2023-04-04T03:42:44;99761.48;;;-0.76;74.76
58662;BME280;44432;49.786;22.760;2023-04-04T03:45:15;99763.41;;;-0.76;74.60
58662;BME280;44432;49.786;22.760;2023-04-04T03:47:45;99760.65;;;-0.76;74.80
58662;BME280;44432;49.786;22.760;2023-04-04T03:50:16;99762.83;;;-0.75;74.67
58662;BME280;44432;49.786;22.760;2023-04-04T03:52:47;99762.34;;;-0.73;74.61
58662;BME280;44432;49.786;22.760;2023-04-04T03:55:18;99762.27;;;-0.73;74.75
58662;BME280;44432;49.786;22.760;2023-04-04T03:57:49;99766.67;;;-0.72;74.68
58662;BME280;44432;49.786;22.760;2023-04-04T04:00:20;99760.94;;;-0.73;74.65
58662;BME280;44432;49.786;22.760;2023-04-04T04:02:51;99760.39;;;-0.75;74.63
58662;BME280;44432;49.786;22.760;2023-04-04T04:05:22;99765.37;;;-0.77;74.64
58662;BME280;44432;49.786;22.760;2023-04-04T04:07:53;99768.15;;;-0.77;74.79
58662;BME280;44432;49.786;22.760;2023-04-04T04:10:25;99768.07;;;-0.78;75.01
58662;BME280;44432;49.786;22.760;2023-04-04T04:12:56;99769.73;;;-0.81;74.85
58662;BME280;44432;49.786;22.760;2023-04-04T04:15:26;99775.46;;;-0.82;74.84
58662;BME280;44432;49.786;22.760;2023-04-04T04:17:57;99777.00;;;-0.85;74.81
58662;BME280;44432;49.786;22.760;2023-04-04T04:20:28;99783.69;;;-0.85;74.99
58662;BME280;44432;49.786;22.760;2023-04-04T04:22:59;99786.42;;;-0.84;75.10
58662;BME280;44432;49.786;22.760;2023-04-04T04:25:30;99789.27;;;-0.83;75.00
58662;BME280;44432;49.786;22.760;2023-04-04T04:28:00;99794.11;;;-0.81;75.22
58662;BME280;44432;49.786;22.760;2023-04-04T04:30:31;99798.20;;;-0.81;75.30
58662;BME280;44432;49.786;22.760;2023-04-04T04:33:02;99797.59;;;-0.81;75.22
58662;BME280;44432;49.786;22.760;2023-04-04T04:35:36;99803.73;;;-0.79;75.31
58662;BME280;44432;49.786;22.760;2023-04-04T04:38:07;99805.34;;;-0.73;75.61
58662;BME280;44432;49.786;22.760;2023-04-04T04:40:39;99811.67;;;-0.68;75.58
58662;BME280;44432;49.786;22.760;2023-04-04T04:43:10;99811.30;;;-0.63;75.61
58662;BME280;44432;49.786;22.760;2023-04-04T04:45:41;99817.14;;;-0.59;75.37
58662;BME280;44432;49.786;22.760;2023-04-04T04:48:12;99815.92;;;-0.57;75.19
58662;BME280;44432;49.786;22.760;2023-04-04T04:50:45;99822.36;;;-0.53;75.25
58662;BME280;44432;49.786;22.760;2023-04-04T04:53:16;99826.10;;;-0.46;75.31
58662;BME280;44432;49.786;22.760;2023-04-04T04:55:47;99829.80;;;-0.39;75.28
58662;BME280;44432;49.786;22.760;2023-04-04T04:58:20;99825.29;;;-0.30;75.43
58662;BME280;44432;49.786;22.760;2023-04-04T05:00:55;99818.63;;;-0.28;74.97
58662;BME280;44432;49.786;22.760;2023-04-04T05:03:27;99821.23;;;-0.21;74.96
58662;BME280;44432;49.786;22.760;2023-04-04T05:05:57;99819.55;;;-0.16;74.71
58662;BME280;44432;49.786;22.760;2023-04-04T05:08:28;99813.85;;;-0.14;74.59
58662;BME280;44432;49.786;22.760;2023-04-04T05:10:59;99816.55;;;-0.10;74.60
58662;BME280;44432;49.786;22.760;2023-04-04T05:13:30;99814.63;;;-0.07;74.59
58662;BME280;44432;49.786;22.760;2023-04-04T05:16:00;99817.46;;;-0.06;74.34
58662;BME280;44432;49.786;22.760;2023-04-04T05:18:31;99814.75;;;-0.09;74.35
58662;BME280;44432;49.786;22.760;2023-04-04T05:21:02;99813.95;;;-0.11;74.25
58662;BME280;44432;49.786;22.760;2023-04-04T05:23:33;99813.15;;;-0.14;74.19
58662;BME280;44432;49.786;22.760;2023-04-04T05:26:04;99812.06;;;-0.20;73.95
58662;BME280;44432;49.786;22.760;2023-04-04T05:28:35;99813.65;;;-0.24;73.98
58662;BME280;44432;49.786;22.760;2023-04-04T05:31:06;99817.24;;;-0.27;74.20
58662;BME280;44432;49.786;22.760;2023-04-04T05:33:36;99821.38;;;-0.29;74.19
58662;BME280;44432;49.786;22.760;2023-04-04T05:36:08;99824.62;;;-0.33;74.01
58662;BME280;44432;49.786;22.760;2023-04-04T05:38:39;99830.10;;;-0.35;74.21
58662;BME280;44432;49.786;22.760;2023-04-04T05:41:10;99835.04;;;-0.36;74.04
58662;BME280;44432;49.786;22.760;2023-04-04T05:43:41;99830.02;;;-0.36;74.05
58662;BME280;44432;49.786;22.760;2023-04-04T05:46:12;99833.39;;;-0.32;74.33
58662;BME280;44432;49.786;22.760;2023-04-04T05:48:42;99838.44;;;-0.28;74.30
58662;BME280;44432;49.786;22.760;2023-04-04T05:51:13;99841.66;;;-0.28;74.25
58662;BME280;44432;49.786;22.760;2023-04-04T05:53:44;99839.73;;;-0.23;74.20
58662;BME280;44432;49.786;22.760;2023-04-04T05:56:16;99845.59;;;-0.17;74.25
58662;BME280;44432;49.786;22.760;2023-04-04T05:58:47;99847.45;;;-0.09;74.31
58662;BME280;44432;49.786;22.760;2023-04-04T06:01:17;99854.25;;;-0.03;74.02
58662;BME280;44432;49.786;22.760;2023-04-04T06:03:48;99852.90;;;0.04;74.02
58662;BME280;44432;49.786;22.760;2023-04-04T06:06:19;99846.94;;;0.09;73.54
58662;BME280;44432;49.786;22.760;2023-04-04T06:08:50;99848.67;;;0.13;73.19
58662;BME280;44432;49.786;22.760;2023-04-04T06:11:20;99844.77;;;0.16;73.18
58662;BME280;44432;49.786;22.760;2023-04-04T06:13:52;99847.04;;;0.22;73.10
58662;BME280;44432;49.786;22.760;2023-04-04T06:16:23;99841.64;;;0.26;72.75
58662;BME280;44432;49.786;22.760;2023-04-04T06:18:54;99841.67;;;0.30;72.65
58662;BME280;44432;49.786;22.760;2023-04-04T06:21:25;99844.59;;;0.36;72.70
58662;BME280;44432;49.786;22.760;2023-04-04T06:23:55;99844.68;;;0.43;72.53
58662;BME280;44432;49.786;22.760;2023-04-04T06:26:26;99841.88;;;0.50;72.33
58662;BME280;44432;49.786;22.760;2023-04-04T06:28:57;99840.77;;;0.56;72.01
58662;BME280;44432;49.786;22.760;2023-04-04T06:31:28;99840.48;;;0.61;71.60
58662;BME280;44432;49.786;22.760;2023-04-04T06:33:59;99843.63;;;0.67;71.40
58662;BME280;44432;49.786;22.760;2023-04-04T06:36:30;99843.98;;;0.73;71.09
58662;BME280;44432;49.786;22.760;2023-04-04T06:39:01;99836.61;;;0.76;70.39
58662;BME280;44432;49.786;22.760;2023-04-04T06:41:32;99836.88;;;0.80;70.66
58662;BME280;44432;49.786;22.760;2023-04-04T06:44:03;99836.26;;;0.85;70.18
58662;BME280;44432;49.786;22.760;2023-04-04T06:46:34;99833.14;;;0.89;69.71
58662;BME280;44432;49.786;22.760;2023-04-04T06:49:06;99827.97;;;0.91;69.16
58662;BME280;44432;49.786;22.760;2023-04-04T06:51:37;99822.33;;;0.90;68.81
58662;BME280;44432;49.786;22.760;2023-04-04T06:54:09;99815.13;;;0.95;69.02
58662;BME280;44432;49.786;22.760;2023-04-04T06:56:40;99813.40;;;1.06;69.33
58662;BME280;44432;49.786;22.760;2023-04-04T06:59:11;99812.51;;;1.19;68.80
58662;BME280;44432;49.786;22.760;2023-04-04T07:01:42;99814.88;;;1.28;68.40
58662;BME280;44432;49.786;22.760;2023-04-04T07:04:13;99817.05;;;1.38;68.51
58662;BME280;44432;49.786;22.760;2023-04-04T07:06:44;99824.81;;;1.52;68.44
58662;BME280;44432;49.786;22.760;2023-04-04T07:09:14;99824.13;;;1.63;67.86
58662;BME280;44432;49.786;22.760;2023-04-04T07:11:45;99816.52;;;1.70;67.37
58662;BME280;44432;49.786;22.760;2023-04-04T07:14:16;99813.33;;;1.73;66.89
58662;BME280;44432;49.786;22.760;2023-04-04T07:16:46;99814.98;;;1.77;66.99
58662;BME280;44432;49.786;22.760;2023-04-04T07:19:17;99817.19;;;1.82;67.23
58662;BME280;44432;49.786;22.760;2023-04-04T07:21:48;99816.78;;;1.80;66.36
58662;BME280;44432;49.786;22.760;2023-04-04T07:24:19;99819.21;;;1.82;66.66
58662;BME280;44432;49.786;22.760;2023-04-04T07:26:49;99824.64;;;1.87;66.66
58662;BME280;44432;49.786;22.760;2023-04-04T07:29:20;99826.02;;;1.89;66.57
58662;BME280;44432;49.786;22.760;2023-04-04T07:31:52;99823.17;;;1.91;66.19
58662;BME280;44432;49.786;22.760;2023-04-04T07:34:23;99818.02;;;1.91;65.45
58662;BME280;44432;49.786;22.760;2023-04-04T07:36:55;99813.42;;;1.90;65.28
58662;BME280;44432;49.786;22.760;2023-04-04T07:39:26;99813.04;;;1.98;65.82
58662;BME280;44432;49.786;22.760;2023-04-04T07:41:57;99810.19;;;2.10;65.90
58662;BME280;44432;49.786;22.760;2023-04-04T07:44:27;99809.52;;;2.23;65.46
58662;BME280;44432;49.786;22.760;2023-04-04T07:46:58;99807.96;;;2.33;64.94
58662;BME280;44432;49.786;22.760;2023-04-04T07:49:29;99807.52;;;2.37;64.44
58662;BME280;44432;49.786;22.760;2023-04-04T07:52:00;99794.48;;;2.39;63.76
58662;BME280;44432;49.786;22.760;2023-04-04T07:54:31;99797.06;;;2.45;62.70
58662;BME280;44432;49.786;22.760;2023-04-04T07:57:02;99795.75;;;2.42;61.87
58662;BME280;44432;49.786;22.760;2023-04-04T07:59:34;99801.89;;;2.47;61.86
58662;BME280;44432;49.786;22.760;2023-04-04T08:02:05;99792.48;;;2.56;61.35
58662;BME280;44432;49.786;22.760;2023-04-04T08:04:36;99783.67;;;2.73;59.43
58662;BME280;44432;49.786;22.760;2023-04-04T08:07:06;99783.52;;;2.91;59.45
58662;BME280;44432;49.786;22.760;2023-04-04T08:09:37;99772.67;;;3.16;59.00
58662;BME280;44432;49.786;22.760;2023-04-04T08:12:08;99776.09;;;3.37;57.33
58662;BME280;44432;49.786;22.760;2023-04-04T08:14:39;99770.74;;;3.48;56.44
58662;BME280;44432;49.786;22.760;2023-04-04T08:17:09;99771.98;;;3.60;55.49
58662;BME280;44432;49.786;22.760;2023-04-04T08:19:41;99777.95;;;3.74;55.27
58662;BME280;44432;49.786;22.760;2023-04-04T08:22:12;99775.34;;;3.78;54.46
58662;BME280;44432;49.786;22.760;2023-04-04T08:24:43;99775.09;;;3.83;53.52
58662;BME280;44432;49.786;22.760;2023-04-04T08:27:14;99765.59;;;3.83;52.31
58662;BME280;44432;49.786;22.760;2023-04-04T08:29:45;99769.08;;;3.80;51.82
58662;BME280;44432;49.786;22.760;2023-04-04T08:32:16;99774.48;;;3.78;52.22
58662;BME280;44432;49.786;22.760;2023-04-04T08:34:47;99772.42;;;3.75;51.57
58662;BME280;44432;49.786;22.760;2023-04-04T08:37:18;99769.66;;;3.65;51.64
58662;BME280;44432;49.786;22.760;2023-04-04T08:39:48;99766.46;;;3.58;51.79
58662;BME280;44432;49.786;22.760;2023-04-04T08:42:20;99765.27;;;3.56;51.65
58662;BME280;44432;49.786;22.760;2023-04-04T08:44:53;99763.39;;;3.56;51.31
58662;BME280;44432;49.786;22.760;2023-04-04T08:47:24;99765.53;;;3.48;51.40
58662;BME280;44432;49.786;22.760;2023-04-04T08:49:59;99767.58;;;3.47;51.28
58662;BME280;44432;49.786;22.760;2023-04-04T08:52:31;99764.89;;;3.51;50.91
58662;BME280;44432;49.786;22.760;2023-04-04T08:55:04;99763.61;;;3.57;50.55
58662;BME280;44432;49.786;22.760;2023-04-04T08:57:35;99762.17;;;3.71;50.80
58662;BME280;44432;49.786;22.760;2023-04-04T09:00:09;99763.80;;;3.82;49.92
58662;BME280;44432;49.786;22.760;2023-04-04T09:02:48;99764.33;;;3.96;49.30
58662;BME280;44432;49.786;22.760;2023-04-04T09:05:19;99755.68;;;4.04;49.23
58662;BME280;44432;49.786;22.760;2023-04-04T09:07:51;99758.58;;;4.11;49.30
58662;BME280;44432;49.786;22.760;2023-04-04T09:10:22;99763.05;;;4.24;49.60
58662;BME280;44432;49.786;22.760;2023-04-04T09:12:54;99757.04;;;4.42;49.14
58662;BME280;44432;49.786;22.760;2023-04-04T09:15:26;99761.50;;;4.54;48.29
58662;BME280;44432;49.786;22.760;2023-04-04T09:17:57;99761.06;;;4.62;48.36
58662;BME280;44432;49.786;22.760;2023-04-04T09:20:38;99758.74;;;4.67;48.10
58662;BME280;44432;49.786;22.760;2023-04-04T09:23:11;99759.98;;;4.68;47.57
58662;BME280;44432;49.786;22.760;2023-04-04T09:25:47;99764.50;;;4.74;47.34
58662;BME280;44432;49.786;22.760;2023-04-04T09:28:19;99768.06;;;4.69;46.57
58662;BME280;44432;49.786;22.760;2023-04-04T09:30:51;99770.94;;;4.72;46.93
58662;BME280;44432;49.786;22.760;2023-04-04T09:33:22;99766.44;;;4.72;46.68
58662;BME280;44432;49.786;22.760;2023-04-04T09:35:56;99778.75;;;4.72;46.32
58662;BME280;44432;49.786;22.760;2023-04-04T09:38:29;99771.41;;;4.72;46.42
58662;BME280;44432;49.786;22.760;2023-04-04T09:41:00;99758.81;;;4.78;46.17
58662;BME280;44432;49.786;22.760;2023-04-04T09:43:31;99769.67;;;4.84;46.28
58662;BME280;44432;49.786;22.760;2023-04-04T09:46:03;99770.95;;;4.83;45.57
58662;BME280;44432;49.786;22.760;2023-04-04T09:48:35;99763.29;;;4.78;45.79
58662;BME280;44432;49.786;22.760;2023-04-04T09:51:10;99763.75;;;4.77;45.40
58662;BME280;44432;49.786;22.760;2023-04-04T09:53:41;99762.15;;;4.74;45.49
58662;BME280;44432;49.786;22.760;2023-04-04T09:56:17;99762.58;;;4.74;44.84
58662;BME280;44432;49.786;22.760;2023-04-04T09:58:49;99755.67;;;4.63;44.47
58662;BME280;44432;49.786;22.760;2023-04-04T10:01:20;99756.77;;;4.54;45.42
58662;BME280;44432;49.786;22.760;2023-04-04T10:03:53;99758.16;;;4.49;45.13
58662;BME280;44432;49.786;22.760;2023-04-04T10:06:24;99761.92;;;4.45;45.40
58662;BME280;44432;49.786;22.760;2023-04-04T10:08:56;99759.15;;;4.45;45.32
58662;BME280;44432;49.786;22.760;2023-04-04T10:11:32;99759.39;;;4.49;45.34
58662;BME280;44432;49.786;22.760;2023-04-04T10:14:03;99754.35;;;4.46;44.56
58662;BME280;44432;49.786;22.760;2023-04-04T10:16:34;99751.83;;;4.50;44.86
58662;BME280;44432;49.786;22.760;2023-04-04T10:19:06;99739.00;;;4.63;45.64
58662;BME280;44432;49.786;22.760;2023-04-04T10:21:38;99739.29;;;4.87;45.50
58662;BME280;44432;49.786;22.760;2023-04-04T10:24:09;99742.65;;;4.98;45.11
58662;BME280;44432;49.786;22.760;2023-04-04T10:26:40;99750.66;;;4.93;44.74
58662;BME280;44432;49.786;22.760;2023-04-04T10:29:11;99750.41;;;4.84;44.75
58662;BME280;44432;49.786;22.760;2023-04-04T10:31:44;99747.89;;;4.72;44.12
58662;BME280;44432;49.786;22.760;2023-04-04T10:34:23;99753.45;;;4.64;44.35
58662;BME280;44432;49.786;22.760;2023-04-04T10:37:01;99747.30;;;4.63;44.96
58662;BME280;44432;49.786;22.760;2023-04-04T10:39:43;99742.29;;;4.45;43.64
58662;BME280;44432;49.786;22.760;2023-04-04T10:42:15;99752.27;;;4.24;43.50
58662;BME280;44432;49.786;22.760;2023-04-04T10:44:47;99760.36;;;4.17;44.97
58662;BME280;44432;49.786;22.760;2023-04-04T10:47:19;99752.54;;;4.23;45.07
58662;BME280;44432;49.786;22.760;2023-04-04T10:49:50;99748.13;;;4.39;44.88
58662;BME280;44432;49.786;22.760;2023-04-04T10:52:22;99747.35;;;4.49;45.07
58662;BME280;44432;49.786;22.760;2023-04-04T10:54:55;99743.67;;;4.64;45.31
58662;BME280;44432;49.786;22.760;2023-04-04T10:57:27;99743.80;;;4.79;45.18
58662;BME280;44432;49.786;22.760;2023-04-04T10:59:59;99745.73;;;4.89;44.62
58662;BME280;44432;49.786;22.760;2023-04-04T11:02:44;99748.13;;;4.86;43.30
58662;BME280;44432;49.786;22.760;2023-04-04T11:05:19;99742.86;;;4.72;43.20
58662;BME280;44432;49.786;22.760;2023-04-04T11:07:56;99743.96;;;4.62;43.99
58662;BME280;44432;49.786;22.760;2023-04-04T11:10:30;99744.52;;;4.53;44.25
58662;BME280;44432;49.786;22.760;2023-04-04T11:13:00;99745.75;;;4.47;45.11
58662;BME280;44432;49.786;22.760;2023-04-04T11:15:51;99748.02;;;4.38;44.95
58662;BME280;44432;49.786;22.760;2023-04-04T11:18:34;99747.51;;;4.18;44.88
58662;BME280;44432;49.786;22.760;2023-04-04T11:21:16;99755.98;;;4.06;45.45
58662;BME280;44432;49.786;22.760;2023-04-04T11:24:15;99752.80;;;4.00;44.97
58662;BME280;44432;49.786;22.760;2023-04-04T11:26:47;99748.02;;;3.95;45.42
58662;BME280;44432;49.786;22.760;2023-04-04T11:29:50;99749.35;;;3.98;45.38
58662;BME280;44432;49.786;22.760;2023-04-04T11:32:44;99748.29;;;4.00;45.53
58662;BME280;44432;49.786;22.760;2023-04-04T11:35:18;99740.80;;;4.06;45.75
58662;BME280;44432;49.786;22.760;2023-04-04T11:38:00;99732.17;;;4.13;45.29
58662;BME280;44432;49.786;22.760;2023-04-04T11:40:39;99736.56;;;4.24;45.41
58662;BME280;44432;49.786;22.760;2023-04-04T11:43:11;99732.08;;;4.37;44.68
58662;BME280;44432;49.786;22.760;2023-04-04T11:45:48;99727.45;;;4.48;44.39
58662;BME280;44432;49.786;22.760;2023-04-04T11:48:19;99719.05;;;4.53;44.07
58662;BME280;44432;49.786;22.760;2023-04-04T11:50:53;99721.64;;;4.60;44.21
58662;BME280;44432;49.786;22.760;2023-04-04T11:53:24;99716.15;;;4.59;44.11
58662;BME280;44432;49.786;22.760;2023-04-04T11:55:54;99718.53;;;4.53;44.24
58662;BME280;44432;49.786;22.760;2023-04-04T11:58:26;99722.42;;;4.49;44.26
58662;BME280;44432;49.786;22.760;2023-04-04T12:00:57;99714.48;;;4.39;43.60
58662;BME280;44432;49.786;22.760;2023-04-04T12:03:28;99716.58;;;4.31;44.08
58662;BME280;44432;49.786;22.760;2023-04-04T12:06:00;99717.55;;;4.31;44.32
58662;BME280;44432;49.786;22.760;2023-04-04T12:08:31;99716.42;;;4.39;44.54
58662;BME280;44432;49.786;22.760;2023-04-04T12:11:07;99713.71;;;4.41;43.91
58662;BME280;44432;49.786;22.760;2023-04-04T12:13:43;99710.48;;;4.44;44.53
58662;BME280;44432;49.786;22.760;2023-04-04T12:16:14;99707.06;;;4.59;44.69
58662;BME280;44432;49.786;22.760;2023-04-04T12:18:49;99706.04;;;4.85;44.87
58662;BME280;44432;49.786;22.760;2023-04-04T12:21:20;99701.73;;;5.12;44.61
58662;BME280;44432;49.786;22.760;2023-04-04T12:23:51;99693.36;;;5.29;44.35
58662;BME280;44432;49.786;22.760;2023-04-04T12:26:22;99692.85;;;5.34;43.92
58662;BME280;44432;49.786;22.760;2023-04-04T12:28:58;99696.17;;;5.29;44.11
58662;BME280;44432;49.786;22.760;2023-04-04T12:31:30;99696.60;;;5.28;43.99
58662;BME280;44432;49.786;22.760;2023-04-04T12:34:02;99697.36;;;5.26;43.79
58662;BME280;44432;49.786;22.760;2023-04-04T12:36:33;99695.11;;;5.22;43.71
58662;BME280;44432;49.786;22.760;2023-04-04T12:39:06;99686.54;;;5.20;43.84
58662;BME280;44432;49.786;22.760;2023-04-04T12:41:47;99698.08;;;5.20;43.56
58662;BME280;44432;49.786;22.760;2023-04-04T12:44:28;99690.00;;;5.12;43.33
58662;BME280;44432;49.786;22.760;2023-04-04T12:47:01;99688.11;;;5.10;43.25
58662;BME280;44432;49.786;22.760;2023-04-04T12:49:37;99687.42;;;4.95;42.06
58662;BME280;44432;49.786;22.760;2023-04-04T12:52:16;99685.52;;;4.73;42.42
58662;BME280;44432;49.786;22.760;2023-04-04T12:54:49;99686.20;;;4.66;42.77
58662;BME280;44432;49.786;22.760;2023-04-04T12:57:23;99694.77;;;4.62;42.51
58662;BME280;44432;49.786;22.760;2023-04-04T12:59:55;99685.45;;;4.57;42.52
58662;BME280;44432;49.786;22.760;2023-04-04T13:02:26;99673.52;;;4.65;43.11
58662;BME280;44432;49.786;22.760;2023-04-04T13:04:58;99674.98;;;4.77;43.75
58662;BME280;44432;49.786;22.760;2023-04-04T13:07:31;99674.15;;;4.88;43.64
58662;BME280;44432;49.786;22.760;2023-04-04T13:10:05;99676.98;;;4.92;43.03
58662;BME280;44432;49.786;22.760;2023-04-04T13:12:56;99670.96;;;4.81;42.39
58662;BME280;44432;49.786;22.760;2023-04-04T13:15:50;99671.10;;;4.73;43.03
58662;BME280;44432;49.786;22.760;2023-04-04T13:18:24;99672.18;;;4.68;43.05
58662;BME280;44432;49.786;22.760;2023-04-04T13:20:55;99672.52;;;4.68;43.25